createdAt,value
2024-04-13T00:00:15.876Z,97390.44
2024-04-13T00:06:18.887Z,97382.84
2024-04-13T00:12:21.272Z,97383.75
2024-04-13T00:18:23.613Z,97380.38
2024-04-13T00:24:25.948Z,97372.78
2024-04-13T00:30:29.553Z,97377.94
2024-04-13T00:36:36.630Z,97380.75
2024-04-13T00:42:39.143Z,97373.22
2024-04-13T00:48:41.656Z,97372.53
2024-04-13T00:54:46.536Z,97364.16
2024-04-13T01:00:49.144Z,97367.16
2024-04-13T01:06:52.111Z,97370.13
2024-04-13T01:12:54.580Z,97379.97
2024-04-13T01:18:57.491Z,97382.00
2024-04-13T01:24:59.785Z,97383.97
2024-04-13T01:31:03.192Z,97397.22
2024-04-13T01:37:08.525Z,97393.38
2024-04-13T01:43:10.893Z,97393.91
2024-04-13T01:49:14.201Z,97382.25
2024-04-13T01:55:16.532Z,97387.81
2024-04-13T02:01:18.991Z,97381.34
2024-04-13T02:07:21.452Z,97384.22
2024-04-13T02:13:23.707Z,97385.25
2024-04-13T02:19:26.062Z,97381.19
2024-04-13T02:25:28.447Z,97387.53
2024-04-13T02:31:30.725Z,97391.19
2024-04-13T02:37:33.065Z,97386.16
2024-04-13T02:43:37.339Z,97389.75
2024-04-13T02:49:40.338Z,97391.72
2024-04-13T02:55:43.075Z,97395.31
2024-04-13T03:01:45.495Z,97401.63
2024-04-13T03:07:47.820Z,97399.94
2024-04-13T03:13:50.685Z,97398.16
2024-04-13T03:19:54.701Z,97400.78
2024-04-13T03:25:57.118Z,97402.72
2024-04-13T03:31:59.518Z,97401.84
2024-04-13T03:38:02.073Z,97403.31
2024-04-13T03:44:04.381Z,97404.25
2024-04-13T03:50:08.261Z,97406.78
2024-04-13T03:56:11.519Z,97401.03
2024-04-13T04:02:13.969Z,97406.59
2024-04-13T04:08:16.400Z,97413.63
2024-04-13T04:14:18.812Z,97413.81
2024-04-13T04:20:22.179Z,97408.78
2024-04-13T04:26:24.470Z,97420.03
2024-04-13T04:32:26.816Z,97419.25
2024-04-13T04:38:29.161Z,97432.00
2024-04-13T04:44:31.503Z,97424.81
2024-04-13T04:50:34.273Z,97426.78
2024-04-13T04:56:36.543Z,97419.34
2024-04-13T05:02:38.897Z,97415.25
2024-04-13T05:08:41.228Z,97410.13
2024-04-13T05:14:43.537Z,97397.91
2024-04-13T05:20:47.202Z,97413.00
2024-04-13T05:26:49.673Z,97405.13
2024-04-13T05:32:53.537Z,97416.72
2024-04-13T05:38:56.214Z,97404.72
2024-04-13T05:44:59.423Z,97407.13
2024-04-13T05:51:01.720Z,97406.63
2024-04-13T05:57:04.277Z,97407.25
2024-04-13T06:03:07.366Z,97404.31
2024-04-13T06:09:10.317Z,97403.56
2024-04-13T06:15:12.873Z,97400.47
2024-04-13T06:21:15.221Z,97396.94
2024-04-13T06:27:18.443Z,97367.81
2024-04-13T06:33:21.216Z,97377.22
2024-04-13T06:39:23.760Z,97363.44
2024-04-13T06:45:26.065Z,97359.38
2024-04-13T06:51:28.411Z,97370.56
2024-04-13T06:57:31.826Z,97373.50
2024-04-13T07:03:34.290Z,97374.25
2024-04-13T07:09:36.740Z,97377.81
2024-04-13T07:15:39.156Z,97366.91
2024-04-13T07:21:41.540Z,97366.22
2024-04-13T07:27:44.118Z,97353.00
2024-04-13T07:33:46.723Z,97348.31
2024-04-13T07:39:49.221Z,97337.47
2024-04-13T07:45:51.703Z,97342.94
2024-04-13T07:51:54.084Z,97337.91
2024-04-13T07:57:56.367Z,97340.63
2024-04-13T08:03:59.178Z,97339.59
2024-04-13T08:10:01.903Z,97337.03
2024-04-13T08:16:06.124Z,97338.06
2024-04-13T08:22:10.721Z,97335.97
2024-04-13T08:28:13.564Z,97337.34
2024-04-13T08:34:20.346Z,97332.22
2024-04-13T08:40:22.934Z,97328.63
2024-04-13T08:46:26.233Z,97329.81
2024-04-13T08:52:30.599Z,97321.91
2024-04-13T08:58:36.429Z,97319.47
2024-04-13T09:04:38.839Z,97321.53
2024-04-13T09:10:43.869Z,97318.28
2024-04-13T09:16:46.996Z,97316.94
2024-04-13T09:22:49.657Z,97309.41
2024-04-13T09:28:52.559Z,97310.59
2024-04-13T09:34:55.820Z,97300.56
2024-04-13T09:41:01.808Z,97300.78
2024-04-13T09:47:04.319Z,97286.25
2024-04-13T09:53:07.096Z,97274.78
2024-04-13T09:59:13.891Z,97265.75
2024-04-13T10:05:16.395Z,97261.34
2024-04-13T10:11:22.834Z,97254.53
2024-04-13T10:17:25.874Z,97244.63
2024-04-13T10:23:28.269Z,97239.91
2024-04-13T10:29:43.123Z,97234.72
2024-04-13T10:36:03.887Z,97231.44
2024-04-13T10:42:12.834Z,97227.56
2024-04-13T10:48:15.418Z,97215.47
2024-04-13T10:54:17.868Z,97215.28
2024-04-13T11:00:21.424Z,97212.66
2024-04-13T11:06:23.768Z,97192.09
2024-04-13T11:12:26.229Z,97186.94
2024-04-13T11:18:29.031Z,97184.34
2024-04-13T11:24:31.838Z,97177.44
2024-04-13T11:30:34.946Z,97166.81
2024-04-13T11:36:37.455Z,97159.84
2024-04-13T11:42:51.163Z,97150.75
2024-04-13T11:48:56.017Z,97134.53
2024-04-13T11:54:58.584Z,97126.56
2024-04-13T12:01:03.296Z,97123.66
2024-04-13T12:07:05.900Z,97117.50
2024-04-13T12:13:08.405Z,97113.50
2024-04-13T12:19:11.897Z,97109.31
2024-04-13T12:25:14.384Z,97098.91
2024-04-13T12:31:16.716Z,97081.16
2024-04-13T12:37:19.115Z,97084.66
2024-04-13T12:43:22.413Z,97065.03
2024-04-13T12:49:24.784Z,97058.97
2024-04-13T12:55:27.416Z,97052.50
2024-04-13T13:01:29.894Z,97045.69
2024-04-13T13:07:32.228Z,97037.94
2024-04-13T13:13:34.796Z,97046.72
2024-04-13T13:19:37.156Z,97033.00
2024-04-13T13:25:40.081Z,97034.66
2024-04-13T13:31:43.125Z,97016.47
2024-04-13T13:37:45.510Z,97014.47
2024-04-13T13:43:47.812Z,97002.81
2024-04-13T13:49:50.100Z,96991.09
2024-04-13T13:55:54.545Z,96976.81
2024-04-13T14:01:56.982Z,96973.78
2024-04-13T14:07:59.384Z,96966.63
2024-04-13T14:14:01.757Z,96957.00
2024-04-13T14:20:04.821Z,96965.53
2024-04-13T14:26:07.175Z,96953.00
2024-04-13T14:32:10.589Z,96941.84
2024-04-13T14:38:12.868Z,96931.00
2024-04-13T14:44:15.154Z,96928.66
2024-04-13T14:50:17.444Z,96924.69
2024-04-13T14:56:21.587Z,96925.47
2024-04-13T15:02:25.425Z,96926.47
2024-04-13T15:08:27.994Z,96927.94
2024-04-13T15:14:30.290Z,96927.28
2024-04-13T15:20:32.777Z,96918.59
2024-04-13T15:26:35.153Z,96907.09
2024-04-13T15:32:37.557Z,96902.13
2024-04-13T15:38:40.472Z,96887.75
2024-04-13T15:44:43.314Z,96886.34
2024-04-13T15:50:45.786Z,96883.44
2024-04-13T15:56:48.069Z,96880.25
2024-04-13T16:02:50.423Z,96874.03
2024-04-13T16:08:52.693Z,96881.84
2024-04-13T16:14:54.963Z,96870.22
2024-04-13T16:20:58.439Z,96871.25
2024-04-13T16:27:00.768Z,96865.22
2024-04-13T16:33:04.970Z,96864.59
2024-04-13T16:39:07.294Z,96863.69
2024-04-13T16:45:09.757Z,96854.94
2024-04-13T16:51:12.086Z,96856.88
2024-04-13T16:57:14.437Z,96846.09
2024-04-13T17:03:17.041Z,96851.63
2024-04-13T17:09:21.847Z,96841.69
2024-04-13T17:15:24.271Z,96831.59
2024-04-13T17:21:26.635Z,96836.81
2024-04-13T17:27:28.998Z,96832.50
2024-04-13T17:33:31.345Z,96831.28
2024-04-13T17:39:33.799Z,96827.91
2024-04-13T17:45:36.120Z,96835.13
2024-04-13T17:51:38.515Z,96828.09
2024-04-13T17:57:41.683Z,96831.94
2024-04-13T18:03:46.243Z,96833.44
2024-04-13T18:09:48.672Z,96823.19
2024-04-13T18:15:51.158Z,96830.66
2024-04-13T18:21:53.609Z,96838.69
2024-04-13T18:27:56.148Z,96835.34
2024-04-13T18:33:58.618Z,96827.34
2024-04-13T18:40:01.126Z,96836.28
2024-04-13T18:46:05.029Z,96839.78
2024-04-13T18:52:07.418Z,96847.13
2024-04-13T18:58:10.901Z,96847.16
2024-04-13T19:04:13.574Z,96853.75
2024-04-13T19:10:16.315Z,96851.75
2024-04-13T19:16:18.796Z,96855.50
2024-04-13T19:22:22.687Z,96863.44
2024-04-13T19:28:25.995Z,96854.31
2024-04-13T19:34:28.359Z,96851.94
2024-04-13T19:40:31.002Z,96855.81
2024-04-13T19:46:33.321Z,96852.94
2024-04-13T19:52:35.587Z,96854.28
2024-04-13T19:58:37.936Z,96859.19
2024-04-13T20:04:40.499Z,96851.03
2024-04-13T20:10:43.098Z,96852.22
2024-04-13T20:17:04.033Z,96855.19
2024-04-13T20:23:06.321Z,96860.88
2024-04-13T20:29:08.623Z,96854.84
2024-04-13T20:35:11.188Z,96857.03
2024-04-13T20:41:13.503Z,96858.19
2024-04-13T20:47:15.856Z,96845.63
2024-04-13T20:53:18.170Z,96838.22
2024-04-13T20:59:21.134Z,96847.25
2024-04-13T21:05:24.314Z,96841.63
2024-04-13T21:11:26.688Z,96840.34
2024-04-13T21:17:29.097Z,96853.34
2024-04-13T21:23:31.442Z,96845.81
2024-04-13T21:29:37.145Z,96850.22
2024-04-13T21:35:39.613Z,96851.91
2024-04-13T21:41:41.944Z,96844.22
2024-04-13T21:47:44.281Z,96840.59
2024-04-13T21:53:46.862Z,96834.88
2024-04-13T21:59:49.144Z,96830.19
2024-04-13T22:05:51.543Z,96825.41
2024-04-13T22:11:54.111Z,96818.81
2024-04-13T22:17:56.707Z,96817.47
2024-04-13T22:23:59.171Z,96815.47
2024-04-13T22:30:01.780Z,96807.47
2024-04-13T22:36:04.257Z,96808.81
2024-04-13T22:42:06.864Z,96804.03
2024-04-13T22:48:09.626Z,96799.47
2024-04-13T22:54:12.428Z,96802.56
2024-04-13T23:00:14.910Z,96806.69
2024-04-13T23:06:17.207Z,96791.84
2024-04-13T23:12:21.254Z,96784.59
2024-04-13T23:18:23.391Z,96783.41
2024-04-13T23:24:26.071Z,96771.78
2024-04-13T23:30:28.979Z,96769.50
2024-04-13T23:36:31.407Z,96777.56
2024-04-13T23:42:33.797Z,96767.59
2024-04-13T23:48:36.132Z,96764.25
2024-04-13T23:54:38.556Z,96766.41
